This is the latest recevied weather packets stored in our database for station/object SP2ARK-10. If no packets are shown the sender has not sent any weather packets the latest 1 day(s).
| Time | Temp. | Humidity | Pressure | Rain* | Wind** | Luminosity | Snow |
|---|---|---|---|---|---|---|---|
| 1778095406 | 18.89° C | 78% | 1011.8 hPa | - | - | - | - |
| 1778089101 | 20.56° C | 71% | 1010.7 hPa | - | - | - | - |
| 1778087300 | 21.11° C | 69% | 1010.5 hPa | - | - | - | - |
| 1778084597 | 21.11° C | 69% | 1010.4 hPa | - | - | - | - |
| 1778081895 | 21.11° C | 68% | 1010.6 hPa | - | - | - | - |
| 1778080994 | 21.11° C | 68% | 1010.8 hPa | - | - | - | - |
| 1778079193 | 21.11° C | 68% | 1011 hPa | - | - | - | - |
| 1778078292 | 21.11° C | 68% | 1010.9 hPa | - | - | - | - |
| 1778071987 | 21.11° C | 68% | 1011 hPa | - | - | - | - |
| 1778069285 | 20.56° C | 69% | 1010.9 hPa | - | - | - | - |
| 1778062979 | 19.44° C | 71% | 1010.5 hPa | - | - | - | - |
| 1778061178 | 18.89° C | 72% | 1010.4 hPa | - | - | - | - |
| 1778060278 | 18.89° C | 74% | 1010.3 hPa | - | - | - | - |
| 1778059377 | 18.33° C | 76% | 1010.2 hPa | - | - | - | - |
| 1778057575 | 17.78° C | 77% | 1009.9 hPa | - | - | - | - |
| 1778056674 | 17.22° C | 77% | 1009.9 hPa | - | - | - | - |
| 1778055774 | 16.67° C | 77% | 1010 hPa | - | - | - | - |
| 1778054874 | 16.67° C | 77% | 1010.1 hPa | - | - | - | - |
| 1778053973 | 16.11° C | 77% | 1009.9 hPa | - | - | - | - |
| 1778053072 | 16.11° C | 78% | 1009.7 hPa | - | - | - | - |
| 1778048569 | 14.44° C | 81% | 1010.2 hPa | - | - | - | - |
| 1778047668 | 13.89° C | 81% | 1010.2 hPa | - | - | - | - |
| 1778046767 | 13.89° C | 80% | 1010.4 hPa | - | - | - | - |
| 1778045866 | 13.89° C | 80% | 1010.6 hPa | - | - | - | - |
| 1778044065 | 13.89° C | 79% | 1010.8 hPa | - | - | - | - |
* Rain since midnight (hover to see other rain measurements)
** Current wind speed in m/s (hover to see current wind gust speed)